createdAt,value
2022-12-01T00:41:03.935Z,30.80
2022-12-01T01:02:49.846Z,27.40
2022-12-01T01:24:35.894Z,31.10
2022-12-01T01:46:24.047Z,29.80
2022-12-01T02:08:12.516Z,29.50
2022-12-01T02:30:14.109Z,29.00
2022-12-01T02:52:01.100Z,29.80
2022-12-01T03:13:54.918Z,26.50
2022-12-01T03:35:44.780Z,29.50
2022-12-01T03:57:36.023Z,30.10
2022-12-01T04:19:21.906Z,29.30
2022-12-01T05:02:56.834Z,32.80
2022-12-01T05:24:42.606Z,30.60
2022-12-01T05:46:28.714Z,34.30
2022-12-01T06:08:14.464Z,32.90
2022-12-01T06:30:00.186Z,30.60
2022-12-01T06:51:46.749Z,33.80
2022-12-01T07:13:33.922Z,30.00
2022-12-01T07:35:20.351Z,32.10
2022-12-01T07:57:06.414Z,33.90
2022-12-01T08:18:52.986Z,29.10
2022-12-01T08:40:39.293Z,29.40
2022-12-01T09:02:25.887Z,31.40
2022-12-01T09:24:15.530Z,31.20
2022-12-01T09:46:07.292Z,26.40
2022-12-01T10:07:57.414Z,27.70
2022-12-01T10:29:50.126Z,27.20
2022-12-01T10:51:50.390Z,24.30
2022-12-01T11:13:41.646Z,25.80
2022-12-01T11:35:32.407Z,23.00
2022-12-01T11:57:35.496Z,20.90
2022-12-01T12:41:54.631Z,20.70
2022-12-01T13:03:48.120Z,18.70
2022-12-01T13:25:39.586Z,20.20
2022-12-01T13:47:49.459Z,18.30
2022-12-01T14:09:38.333Z,18.50
2022-12-01T14:31:50.135Z,19.10
2022-12-01T14:53:42.109Z,17.60
2022-12-01T15:15:29.040Z,16.80
2022-12-01T15:37:18.710Z,18.70
2022-12-01T15:59:16.381Z,16.50
2022-12-01T16:21:08.718Z,15.60
2022-12-01T16:42:55.059Z,17.00
2022-12-01T17:04:42.756Z,17.00
2022-12-01T17:26:31.906Z,16.70
2022-12-01T17:48:17.864Z,16.30
2022-12-01T18:10:03.800Z,14.10
2022-12-01T18:31:50.019Z,12.70
2022-12-01T18:53:36.638Z,12.30
2022-12-01T19:15:22.883Z,11.10
2022-12-01T19:37:11.193Z,12.30
2022-12-01T19:58:59.542Z,12.10
2022-12-01T20:20:45.475Z,13.20
2022-12-01T20:42:31.332Z,11.90
2022-12-01T21:04:17.968Z,12.00
2022-12-01T21:26:10.222Z,12.20
2022-12-01T21:47:58.619Z,14.30
2022-12-01T22:09:44.570Z,14.80
2022-12-01T22:31:32.010Z,11.70
2022-12-01T22:53:20.208Z,16.90
2022-12-01T23:15:23.656Z,17.60
2022-12-01T23:37:33.518Z,15.30
2022-12-01T23:59:22.930Z,16.70
